sensor_id;sensor_type;location;lat;lon;timestamp;pressure;altitude;pressure_sealevel;temperature;humidity
58367;BME280;57745;42.524;12.052;2023-12-20T00:02:18;96614.59;;;14.56;39.17
58367;BME280;57745;42.524;12.052;2023-12-20T00:04:44;96615.13;;;14.42;39.27
58367;BME280;57745;42.524;12.052;2023-12-20T00:07:09;96602.72;;;14.50;39.26
58367;BME280;57745;42.524;12.052;2023-12-20T00:09:35;96600.50;;;14.58;39.21
58367;BME280;57745;42.524;12.052;2023-12-20T00:12:00;96600.63;;;14.54;39.16
58367;BME280;57745;42.524;12.052;2023-12-20T00:14:26;96600.91;;;14.47;39.14
58367;BME280;57745;42.524;12.052;2023-12-20T00:16:51;96601.84;;;14.53;39.11
58367;BME280;57745;42.524;12.052;2023-12-20T00:19:16;96603.22;;;14.36;39.14
58367;BME280;57745;42.524;12.052;2023-12-20T00:21:42;96600.91;;;14.47;38.68
58367;BME280;57745;42.524;12.052;2023-12-20T00:24:08;96598.34;;;14.53;38.75
58367;BME280;57745;42.524;12.052;2023-12-20T00:26:33;96602.84;;;14.47;38.69
58367;BME280;57745;42.524;12.052;2023-12-20T00:28:59;96599.31;;;14.37;38.90
58367;BME280;57745;42.524;12.052;2023-12-20T00:31:24;96597.13;;;14.45;38.61
58367;BME280;57745;42.524;12.052;2023-12-20T00:33:50;96592.44;;;14.54;38.67
58367;BME280;57745;42.524;12.052;2023-12-20T00:36:15;96590.56;;;14.42;38.63
58367;BME280;57745;42.524;12.052;2023-12-20T00:38:41;96580.59;;;14.48;38.45
58367;BME280;57745;42.524;12.052;2023-12-20T00:41:06;96578.47;;;14.43;38.37
58367;BME280;57745;42.524;12.052;2023-12-20T00:43:32;96582.25;;;14.46;38.34
58367;BME280;57745;42.524;12.052;2023-12-20T00:45:57;96574.66;;;14.41;38.27
58367;BME280;57745;42.524;12.052;2023-12-20T00:48:25;96580.81;;;14.32;38.48
58367;BME280;57745;42.524;12.052;2023-12-20T00:50:52;96569.19;;;14.41;38.13
58367;BME280;57745;42.524;12.052;2023-12-20T00:53:17;96577.63;;;14.33;38.60
58367;BME280;57745;42.524;12.052;2023-12-20T00:55:43;96569.28;;;14.37;38.23
58367;BME280;57745;42.524;12.052;2023-12-20T00:58:10;96560.25;;;14.40;38.57
58367;BME280;57745;42.524;12.052;2023-12-20T01:00:35;96559.72;;;14.32;38.57
58367;BME280;57745;42.524;12.052;2023-12-20T01:03:01;96564.97;;;14.49;38.28
58367;BME280;57745;42.524;12.052;2023-12-20T01:05:26;96565.34;;;14.38;38.58
58367;BME280;57745;42.524;12.052;2023-12-20T01:07:52;96548.00;;;14.45;38.43
58367;BME280;57745;42.524;12.052;2023-12-20T01:10:17;96549.03;;;14.47;38.29
58367;BME280;57745;42.524;12.052;2023-12-20T01:12:43;96549.88;;;14.35;38.78
58367;BME280;57745;42.524;12.052;2023-12-20T01:15:09;96546.59;;;14.40;38.52
58367;BME280;57745;42.524;12.052;2023-12-20T01:17:35;96541.69;;;14.35;38.83
58367;BME280;57745;42.524;12.052;2023-12-20T01:20:01;96540.25;;;14.43;38.64
58367;BME280;57745;42.524;12.052;2023-12-20T01:22:26;96537.84;;;14.45;38.74
58367;BME280;57745;42.524;12.052;2023-12-20T01:24:52;96537.09;;;14.23;39.30
58367;BME280;57745;42.524;12.052;2023-12-20T01:27:17;96536.00;;;14.42;38.88
58367;BME280;57745;42.524;12.052;2023-12-20T01:29:42;96533.22;;;14.33;39.15
58367;BME280;57745;42.524;12.052;2023-12-20T01:32:08;96533.78;;;14.28;39.21
58367;BME280;57745;42.524;12.052;2023-12-20T01:34:33;96532.97;;;14.40;38.83
58367;BME280;57745;42.524;12.052;2023-12-20T01:36:59;96533.38;;;14.38;38.32
58367;BME280;57745;42.524;12.052;2023-12-20T01:39:25;96529.56;;;14.36;38.54
58367;BME280;57745;42.524;12.052;2023-12-20T01:41:50;96524.50;;;14.47;38.40
58367;BME280;57745;42.524;12.052;2023-12-20T01:44:16;96518.44;;;14.43;38.36
58367;BME280;57745;42.524;12.052;2023-12-20T01:46:41;96520.44;;;14.21;38.79
58367;BME280;57745;42.524;12.052;2023-12-20T01:49:07;96521.28;;;14.40;38.45
58367;BME280;57745;42.524;12.052;2023-12-20T01:51:33;96514.41;;;14.35;38.46
58367;BME280;57745;42.524;12.052;2023-12-20T01:54:00;96515.63;;;14.34;38.32
58367;BME280;57745;42.524;12.052;2023-12-20T01:56:26;96513.34;;;14.32;38.56
58367;BME280;57745;42.524;12.052;2023-12-20T01:58:55;96505.00;;;14.36;38.61
58367;BME280;57745;42.524;12.052;2023-12-20T02:01:21;96508.66;;;14.33;38.73
58367;BME280;57745;42.524;12.052;2023-12-20T02:03:47;96500.63;;;14.38;38.56
58367;BME280;57745;42.524;12.052;2023-12-20T02:06:13;96493.94;;;14.30;38.82
58367;BME280;57745;42.524;12.052;2023-12-20T02:08:38;96495.59;;;14.28;39.08
58367;BME280;57745;42.524;12.052;2023-12-20T02:11:04;96497.13;;;14.29;38.90
58367;BME280;57745;42.524;12.052;2023-12-20T02:13:30;96483.00;;;14.21;39.36
58367;BME280;57745;42.524;12.052;2023-12-20T02:15:56;96474.78;;;14.43;39.20
58367;BME280;57745;42.524;12.052;2023-12-20T02:18:22;96477.06;;;14.23;39.03
58367;BME280;57745;42.524;12.052;2023-12-20T02:20:47;96470.09;;;14.22;38.98
58367;BME280;57745;42.524;12.052;2023-12-20T02:23:13;96456.19;;;14.20;39.15
58367;BME280;57745;42.524;12.052;2023-12-20T02:25:40;96458.31;;;14.25;39.03
58367;BME280;57745;42.524;12.052;2023-12-20T02:28:05;96452.03;;;14.06;39.37
58367;BME280;57745;42.524;12.052;2023-12-20T02:30:31;96458.25;;;14.07;39.58
58367;BME280;57745;42.524;12.052;2023-12-20T02:32:59;96448.88;;;14.17;39.05
58367;BME280;57745;42.524;12.052;2023-12-20T02:35:25;96446.03;;;14.20;39.18
58367;BME280;57745;42.524;12.052;2023-12-20T02:37:50;96449.81;;;14.23;38.98
58367;BME280;57745;42.524;12.052;2023-12-20T02:40:16;96445.88;;;14.24;38.89
58367;BME280;57745;42.524;12.052;2023-12-20T02:42:41;96443.13;;;14.24;39.21
58367;BME280;57745;42.524;12.052;2023-12-20T02:45:07;96440.72;;;14.26;38.86
58367;BME280;57745;42.524;12.052;2023-12-20T02:47:32;96432.84;;;14.19;39.10
58367;BME280;57745;42.524;12.052;2023-12-20T02:49:58;96431.91;;;14.22;39.50
58367;BME280;57745;42.524;12.052;2023-12-20T02:52:24;96432.97;;;14.15;39.46
58367;BME280;57745;42.524;12.052;2023-12-20T02:54:50;96430.69;;;14.14;39.15
58367;BME280;57745;42.524;12.052;2023-12-20T02:57:15;96421.59;;;14.17;39.19
58367;BME280;57745;42.524;12.052;2023-12-20T02:59:41;96418.56;;;14.15;38.97
58367;BME280;57745;42.524;12.052;2023-12-20T03:02:06;96419.66;;;14.17;38.85
58367;BME280;57745;42.524;12.052;2023-12-20T03:04:31;96409.03;;;14.19;38.75
58367;BME280;57745;42.524;12.052;2023-12-20T03:06:57;96408.84;;;14.05;39.08
58367;BME280;57745;42.524;12.052;2023-12-20T03:09:22;96400.22;;;14.06;39.12
58367;BME280;57745;42.524;12.052;2023-12-20T03:11:48;96397.03;;;14.08;39.13
58367;BME280;57745;42.524;12.052;2023-12-20T03:14:13;96395.22;;;14.05;39.25
58367;BME280;57745;42.524;12.052;2023-12-20T03:16:39;96404.25;;;13.92;39.53
58367;BME280;57745;42.524;12.052;2023-12-20T03:19:04;96389.16;;;14.10;39.44
58367;BME280;57745;42.524;12.052;2023-12-20T03:21:30;96389.00;;;14.04;39.21
58367;BME280;57745;42.524;12.052;2023-12-20T03:23:55;96386.09;;;13.98;39.71
58367;BME280;57745;42.524;12.052;2023-12-20T03:26:20;96379.09;;;13.97;40.06
58367;BME280;57745;42.524;12.052;2023-12-20T03:28:47;96382.78;;;14.03;39.78
58367;BME280;57745;42.524;12.052;2023-12-20T03:31:13;96371.88;;;14.03;39.99
58367;BME280;57745;42.524;12.052;2023-12-20T03:33:39;96372.75;;;14.00;40.12
58367;BME280;57745;42.524;12.052;2023-12-20T03:36:05;96370.97;;;14.07;40.07
58367;BME280;57745;42.524;12.052;2023-12-20T03:38:30;96365.22;;;14.05;39.94
58367;BME280;57745;42.524;12.052;2023-12-20T03:40:55;96359.50;;;14.21;39.81
58367;BME280;57745;42.524;12.052;2023-12-20T03:43:21;96354.00;;;14.12;40.14
58367;BME280;57745;42.524;12.052;2023-12-20T03:45:46;96356.72;;;14.12;40.34
58367;BME280;57745;42.524;12.052;2023-12-20T03:48:12;96350.63;;;13.98;40.90
58367;BME280;57745;42.524;12.052;2023-12-20T03:50:37;96344.78;;;14.09;41.23
58367;BME280;57745;42.524;12.052;2023-12-20T03:53:03;96344.31;;;14.11;41.43
58367;BME280;57745;42.524;12.052;2023-12-20T03:55:29;96342.06;;;14.18;41.54
58367;BME280;57745;42.524;12.052;2023-12-20T03:57:54;96343.41;;;14.14;42.05
58367;BME280;57745;42.524;12.052;2023-12-20T04:00:20;96340.03;;;14.00;42.23
58367;BME280;57745;42.524;12.052;2023-12-20T04:02:45;96342.78;;;14.10;41.78
58367;BME280;57745;42.524;12.052;2023-12-20T04:05:11;96328.69;;;13.93;42.64
58367;BME280;57745;42.524;12.052;2023-12-20T04:07:36;96326.59;;;14.06;42.60
58367;BME280;57745;42.524;12.052;2023-12-20T04:10:02;96330.53;;;14.14;42.74
58367;BME280;57745;42.524;12.052;2023-12-20T04:12:29;96325.53;;;14.13;43.10
58367;BME280;57745;42.524;12.052;2023-12-20T04:14:54;96327.34;;;14.07;43.54
58367;BME280;57745;42.524;12.052;2023-12-20T04:17:20;96322.22;;;14.18;43.85
58367;BME280;57745;42.524;12.052;2023-12-20T04:19:47;96318.72;;;14.08;44.61
58367;BME280;57745;42.524;12.052;2023-12-20T04:22:13;96325.53;;;14.22;44.56
58367;BME280;57745;42.524;12.052;2023-12-20T04:24:38;96320.97;;;14.00;45.19
58367;BME280;57745;42.524;12.052;2023-12-20T04:27:04;96313.72;;;14.07;45.90
58367;BME280;57745;42.524;12.052;2023-12-20T04:29:29;96313.97;;;13.90;47.89
58367;BME280;57745;42.524;12.052;2023-12-20T04:31:55;96314.28;;;13.92;48.36
58367;BME280;57745;42.524;12.052;2023-12-20T04:34:21;96305.03;;;13.90;49.94
58367;BME280;57745;42.524;12.052;2023-12-20T04:36:47;96311.16;;;13.63;51.73
58367;BME280;57745;42.524;12.052;2023-12-20T04:39:13;96307.31;;;13.91;51.49
58367;BME280;57745;42.524;12.052;2023-12-20T04:41:39;96306.25;;;13.89;51.71
58367;BME280;57745;42.524;12.052;2023-12-20T04:44:05;96308.50;;;13.81;51.87
58367;BME280;57745;42.524;12.052;2023-12-20T04:46:31;96312.44;;;13.89;52.18
58367;BME280;57745;42.524;12.052;2023-12-20T04:48:56;96301.41;;;13.93;52.33
58367;BME280;57745;42.524;12.052;2023-12-20T04:51:22;96303.94;;;13.78;52.53
58367;BME280;57745;42.524;12.052;2023-12-20T04:53:47;96302.44;;;13.77;52.46
58367;BME280;57745;42.524;12.052;2023-12-20T04:56:13;96299.44;;;13.93;52.25
58367;BME280;57745;42.524;12.052;2023-12-20T04:58:38;96294.84;;;13.72;52.54
58367;BME280;57745;42.524;12.052;2023-12-20T05:01:06;96305.16;;;13.77;52.75
58367;BME280;57745;42.524;12.052;2023-12-20T05:03:31;96300.00;;;13.79;52.68
58367;BME280;57745;42.524;12.052;2023-12-20T05:05:57;96295.63;;;13.82;52.59
58367;BME280;57745;42.524;12.052;2023-12-20T05:08:22;96299.06;;;13.73;53.19
58367;BME280;57745;42.524;12.052;2023-12-20T05:10:48;96296.94;;;13.68;53.39
58367;BME280;57745;42.524;12.052;2023-12-20T05:13:13;96302.31;;;13.50;54.33
58367;BME280;57745;42.524;12.052;2023-12-20T05:15:39;96304.28;;;13.49;55.15
58367;BME280;57745;42.524;12.052;2023-12-20T05:18:04;96307.34;;;13.60;54.68
58367;BME280;57745;42.524;12.052;2023-12-20T05:20:30;96306.00;;;13.56;55.27
58367;BME280;57745;42.524;12.052;2023-12-20T05:22:55;96300.03;;;13.48;55.34
58367;BME280;57745;42.524;12.052;2023-12-20T05:25:21;96299.78;;;13.55;54.71
58367;BME280;57745;42.524;12.052;2023-12-20T05:27:46;96304.97;;;13.32;55.43
58367;BME280;57745;42.524;12.052;2023-12-20T05:30:12;96295.34;;;13.49;54.62
58367;BME280;57745;42.524;12.052;2023-12-20T05:32:37;96294.44;;;13.43;54.37
58367;BME280;57745;42.524;12.052;2023-12-20T05:35:03;96298.81;;;13.40;54.78
58367;BME280;57745;42.524;12.052;2023-12-20T05:37:28;96302.06;;;13.26;54.44
58367;BME280;57745;42.524;12.052;2023-12-20T05:39:54;96296.28;;;13.46;54.07
58367;BME280;57745;42.524;12.052;2023-12-20T05:42:19;96298.19;;;13.36;54.03
58367;BME280;57745;42.524;12.052;2023-12-20T05:44:45;96296.19;;;13.27;54.30
58367;BME280;57745;42.524;12.052;2023-12-20T05:47:10;96291.41;;;13.41;53.77
58367;BME280;57745;42.524;12.052;2023-12-20T05:49:36;96292.78;;;13.14;54.45
58367;BME280;57745;42.524;12.052;2023-12-20T05:52:01;96291.06;;;13.29;54.44
58367;BME280;57745;42.524;12.052;2023-12-20T05:54:27;96285.59;;;13.29;55.15
58367;BME280;57745;42.524;12.052;2023-12-20T05:56:52;96282.47;;;13.40;55.00
58367;BME280;57745;42.524;12.052;2023-12-20T05:59:17;96281.94;;;13.23;55.49
58367;BME280;57745;42.524;12.052;2023-12-20T06:01:43;96276.31;;;13.18;55.86
58367;BME280;57745;42.524;12.052;2023-12-20T06:04:08;96275.47;;;13.30;55.35
58367;BME280;57745;42.524;12.052;2023-12-20T06:06:34;96271.75;;;13.46;55.04
58367;BME280;57745;42.524;12.052;2023-12-20T06:08:59;96275.44;;;13.21;55.02
58367;BME280;57745;42.524;12.052;2023-12-20T06:11:26;96271.66;;;13.27;54.65
58367;BME280;57745;42.524;12.052;2023-12-20T06:13:52;96274.03;;;13.16;54.36
58367;BME280;57745;42.524;12.052;2023-12-20T06:16:18;96279.06;;;13.27;54.38
58367;BME280;57745;42.524;12.052;2023-12-20T06:18:44;96270.47;;;13.28;54.54
58367;BME280;57745;42.524;12.052;2023-12-20T06:21:10;96274.22;;;13.22;54.97
58367;BME280;57745;42.524;12.052;2023-12-20T06:23:38;96274.13;;;13.35;54.30
58367;BME280;57745;42.524;12.052;2023-12-20T06:26:03;96270.50;;;13.38;54.43
58367;BME280;57745;42.524;12.052;2023-12-20T06:28:29;96262.94;;;13.42;54.79
58367;BME280;57745;42.524;12.052;2023-12-20T06:30:54;96261.41;;;13.32;55.04
58367;BME280;57745;42.524;12.052;2023-12-20T06:33:20;96263.25;;;13.35;54.99
58367;BME280;57745;42.524;12.052;2023-12-20T06:35:47;96261.28;;;13.13;56.12
58367;BME280;57745;42.524;12.052;2023-12-20T06:38:13;96259.75;;;13.34;55.59
58367;BME280;57745;42.524;12.052;2023-12-20T06:40:38;96258.19;;;13.24;55.89
58367;BME280;57745;42.524;12.052;2023-12-20T06:43:03;96255.41;;;13.15;55.72
58367;BME280;57745;42.524;12.052;2023-12-20T06:45:29;96260.09;;;13.14;56.01
58367;BME280;57745;42.524;12.052;2023-12-20T06:47:54;96260.66;;;13.31;55.70
58367;BME280;57745;42.524;12.052;2023-12-20T06:50:20;96252.25;;;13.16;55.90
58367;BME280;57745;42.524;12.052;2023-12-20T06:52:45;96258.38;;;13.29;55.59
58367;BME280;57745;42.524;12.052;2023-12-20T06:55:11;96263.47;;;13.18;56.08
58367;BME280;57745;42.524;12.052;2023-12-20T06:57:39;96254.09;;;13.19;55.54
58367;BME280;57745;42.524;12.052;2023-12-20T07:00:05;96249.91;;;13.37;55.14
58367;BME280;57745;42.524;12.052;2023-12-20T07:02:31;96257.28;;;13.27;55.09
58367;BME280;57745;42.524;12.052;2023-12-20T07:04:56;96252.34;;;13.35;54.88
58367;BME280;57745;42.524;12.052;2023-12-20T07:07:22;96247.78;;;13.32;54.82
58367;BME280;57745;42.524;12.052;2023-12-20T07:09:49;96248.72;;;13.07;55.28
58367;BME280;57745;42.524;12.052;2023-12-20T07:12:15;96252.78;;;13.11;55.17
58367;BME280;57745;42.524;12.052;2023-12-20T07:14:40;96249.13;;;13.27;54.65
58367;BME280;57745;42.524;12.052;2023-12-20T07:17:06;96251.38;;;13.19;54.84
58367;BME280;57745;42.524;12.052;2023-12-20T07:19:37;96259.16;;;13.08;55.32
58367;BME280;57745;42.524;12.052;2023-12-20T07:22:04;96251.06;;;13.17;55.85
58367;BME280;57745;42.524;12.052;2023-12-20T07:24:29;96253.72;;;13.08;56.12
58367;BME280;57745;42.524;12.052;2023-12-20T07:26:54;96248.97;;;13.21;56.26
58367;BME280;57745;42.524;12.052;2023-12-20T07:29:20;96254.66;;;13.14;56.51
58367;BME280;57745;42.524;12.052;2023-12-20T07:31:45;96252.34;;;13.35;55.98
58367;BME280;57745;42.524;12.052;2023-12-20T07:34:11;96251.22;;;13.23;56.73
58367;BME280;57745;42.524;12.052;2023-12-20T07:36:36;96265.16;;;13.03;57.27
58367;BME280;57745;42.524;12.052;2023-12-20T07:39:02;96260.47;;;13.04;57.54
58367;BME280;57745;42.524;12.052;2023-12-20T07:41:28;96245.66;;;13.36;57.04
58367;BME280;57745;42.524;12.052;2023-12-20T07:43:54;96241.28;;;13.38;56.89
58367;BME280;57745;42.524;12.052;2023-12-20T07:46:20;96245.94;;;13.28;58.03
58367;BME280;57745;42.524;12.052;2023-12-20T07:48:47;96242.06;;;13.39;57.96
58367;BME280;57745;42.524;12.052;2023-12-20T07:51:13;96237.50;;;13.36;58.14
58367;BME280;57745;42.524;12.052;2023-12-20T07:53:38;96230.72;;;13.49;58.17
58367;BME280;57745;42.524;12.052;2023-12-20T07:56:14;96235.13;;;13.47;58.43
58367;BME280;57745;42.524;12.052;2023-12-20T07:58:40;96227.84;;;13.44;58.65
58367;BME280;57745;42.524;12.052;2023-12-20T08:01:05;96233.63;;;13.55;58.70
58367;BME280;57745;42.524;12.052;2023-12-20T08:03:30;96231.97;;;13.57;58.60
58367;BME280;57745;42.524;12.052;2023-12-20T08:05:56;96233.63;;;13.55;58.63
58367;BME280;57745;42.524;12.052;2023-12-20T08:08:25;96236.69;;;13.66;58.76
58367;BME280;57745;42.524;12.052;2023-12-20T08:10:50;96231.38;;;13.62;58.47
58367;BME280;57745;42.524;12.052;2023-12-20T08:13:16;96233.34;;;13.62;58.49
58367;BME280;57745;42.524;12.052;2023-12-20T08:15:41;96232.13;;;13.54;59.01
58367;BME280;57745;42.524;12.052;2023-12-20T08:18:07;96234.41;;;13.55;58.74
58367;BME280;57745;42.524;12.052;2023-12-20T08:20:32;96237.75;;;13.59;58.88
58367;BME280;57745;42.524;12.052;2023-12-20T08:22:58;96233.06;;;13.69;58.51
58367;BME280;57745;42.524;12.052;2023-12-20T08:25:23;96223.06;;;13.66;58.51
58367;BME280;57745;42.524;12.052;2023-12-20T08:27:49;96227.31;;;13.76;57.81
58367;BME280;57745;42.524;12.052;2023-12-20T08:30:14;96223.69;;;13.70;58.34
58367;BME280;57745;42.524;12.052;2023-12-20T08:32:42;96227.94;;;13.71;58.18
58367;BME280;57745;42.524;12.052;2023-12-20T08:35:07;96234.91;;;13.72;57.66
58367;BME280;57745;42.524;12.052;2023-12-20T08:37:34;96236.09;;;13.71;57.86
58367;BME280;57745;42.524;12.052;2023-12-20T08:39:59;96243.09;;;13.81;57.65
58367;BME280;57745;42.524;12.052;2023-12-20T08:42:24;96247.03;;;13.80;57.55
58367;BME280;57745;42.524;12.052;2023-12-20T08:44:56;96250.38;;;13.84;57.65
58367;BME280;57745;42.524;12.052;2023-12-20T08:47:21;96248.16;;;13.61;58.50
58367;BME280;57745;42.524;12.052;2023-12-20T08:49:47;96243.34;;;13.74;58.18
58367;BME280;57745;42.524;12.052;2023-12-20T08:52:12;96246.75;;;13.96;57.49
58367;BME280;57745;42.524;12.052;2023-12-20T08:54:38;96245.06;;;13.99;57.26
58367;BME280;57745;42.524;12.052;2023-12-20T08:57:03;96237.06;;;14.14;56.87
58367;BME280;57745;42.524;12.052;2023-12-20T08:59:31;96246.75;;;14.60;55.53
58367;BME280;57745;42.524;12.052;2023-12-20T09:01:56;96245.88;;;14.54;55.71
58367;BME280;57745;42.524;12.052;2023-12-20T09:04:22;96235.81;;;14.79;55.13
58367;BME280;57745;42.524;12.052;2023-12-20T09:06:47;96237.84;;;15.11;54.80
58367;BME280;57745;42.524;12.052;2023-12-20T09:09:12;96234.91;;;14.72;55.44
58367;BME280;57745;42.524;12.052;2023-12-20T09:11:41;96220.53;;;15.56;52.82
58367;BME280;57745;42.524;12.052;2023-12-20T09:14:07;96224.09;;;16.34;50.38
58367;BME280;57745;42.524;12.052;2023-12-20T09:16:33;96219.41;;;14.88;54.64
58367;BME280;57745;42.524;12.052;2023-12-20T09:18:58;96217.09;;;14.44;56.26
58367;BME280;57745;42.524;12.052;2023-12-20T09:21:23;96219.97;;;14.41;56.54
58367;BME280;57745;42.524;12.052;2023-12-20T09:23:49;96209.19;;;14.19;57.29
58367;BME280;57745;42.524;12.052;2023-12-20T09:26:14;96214.50;;;14.41;57.13
58367;BME280;57745;42.524;12.052;2023-12-20T09:28:40;96210.09;;;14.16;57.95
58367;BME280;57745;42.524;12.052;2023-12-20T09:31:05;96213.41;;;14.29;57.67
58367;BME280;57745;42.524;12.052;2023-12-20T09:33:32;96211.88;;;14.10;58.10
58367;BME280;57745;42.524;12.052;2023-12-20T09:35:58;96215.84;;;14.27;57.45
58367;BME280;57745;42.524;12.052;2023-12-20T09:38:23;96220.09;;;14.19;58.30
58367;BME280;57745;42.524;12.052;2023-12-20T09:40:49;96208.72;;;14.11;58.62
58367;BME280;57745;42.524;12.052;2023-12-20T09:43:15;96213.25;;;14.14;58.58
58367;BME280;57745;42.524;12.052;2023-12-20T09:45:42;96206.75;;;14.21;58.54
58367;BME280;57745;42.524;12.052;2023-12-20T09:48:10;96207.66;;;14.18;58.49
58367;BME280;57745;42.524;12.052;2023-12-20T09:50:36;96213.75;;;14.40;58.43
58367;BME280;57745;42.524;12.052;2023-12-20T09:53:02;96210.09;;;14.34;58.29
58367;BME280;57745;42.524;12.052;2023-12-20T09:55:30;96206.16;;;14.17;58.86
58367;BME280;57745;42.524;12.052;2023-12-20T09:57:57;96200.69;;;14.26;59.41
58367;BME280;57745;42.524;12.052;2023-12-20T10:00:23;96196.16;;;14.32;59.29
58367;BME280;57745;42.524;12.052;2023-12-20T10:02:58;96197.03;;;14.38;58.73
58367;BME280;57745;42.524;12.052;2023-12-20T10:05:29;96182.34;;;14.35;59.12
58367;BME280;57745;42.524;12.052;2023-12-20T10:07:54;96181.75;;;14.31;59.56
58367;BME280;57745;42.524;12.052;2023-12-20T10:10:20;96174.63;;;14.43;59.12
58367;BME280;57745;42.524;12.052;2023-12-20T10:13:10;96164.00;;;14.36;59.02
58367;BME280;57745;42.524;12.052;2023-12-20T10:15:37;96172.50;;;14.01;59.41
58367;BME280;57745;42.524;12.052;2023-12-20T10:18:04;96168.72;;;14.45;58.30
58367;BME280;57745;42.524;12.052;2023-12-20T10:20:30;96164.19;;;14.42;58.41
58367;BME280;57745;42.524;12.052;2023-12-20T10:22:57;96163.72;;;14.43;58.08
58367;BME280;57745;42.524;12.052;2023-12-20T10:25:23;96149.03;;;14.41;58.30
58367;BME280;57745;42.524;12.052;2023-12-20T10:27:50;96155.81;;;14.36;58.57
58367;BME280;57745;42.524;12.052;2023-12-20T10:30:16;96155.06;;;14.35;58.66
58367;BME280;57745;42.524;12.052;2023-12-20T10:32:41;96153.56;;;14.44;58.46
58367;BME280;57745;42.524;12.052;2023-12-20T10:35:08;96157.97;;;14.32;59.00
58367;BME280;57745;42.524;12.052;2023-12-20T10:37:39;96150.66;;;14.38;58.18
58367;BME280;57745;42.524;12.052;2023-12-20T10:40:05;96146.59;;;14.33;58.67
58367;BME280;57745;42.524;12.052;2023-12-20T10:42:31;96138.84;;;14.50;57.95
58367;BME280;57745;42.524;12.052;2023-12-20T10:44:59;96132.31;;;14.48;58.07
58367;BME280;57745;42.524;12.052;2023-12-20T10:47:25;96125.66;;;14.49;57.68
58367;BME280;57745;42.524;12.052;2023-12-20T10:49:52;96124.28;;;14.53;57.17
58367;BME280;57745;42.524;12.052;2023-12-20T10:52:18;96117.56;;;14.63;57.32
58367;BME280;57745;42.524;12.052;2023-12-20T10:54:44;96111.25;;;14.48;57.77
58367;BME280;57745;42.524;12.052;2023-12-20T10:57:10;96115.94;;;14.38;58.15
58367;BME280;57745;42.524;12.052;2023-12-20T10:59:37;96119.78;;;14.41;58.02
58367;BME280;57745;42.524;12.052;2023-12-20T11:02:04;96108.84;;;14.23;58.98
58367;BME280;57745;42.524;12.052;2023-12-20T11:07:43;96112.28;;;14.60;57.61
58367;BME280;57745;42.524;12.052;2023-12-20T11:10:19;96111.44;;;14.45;58.09
58367;BME280;57745;42.524;12.052;2023-12-20T11:12:54;96103.22;;;14.54;57.69
58367;BME280;57745;42.524;12.052;2023-12-20T11:15:23;96107.00;;;14.56;57.54
58367;BME280;57745;42.524;12.052;2023-12-20T11:17:56;96107.00;;;14.38;57.62
58367;BME280;57745;42.524;12.052;2023-12-20T11:20:38;96103.81;;;14.58;57.30
58367;BME280;57745;42.524;12.052;2023-12-20T11:23:04;96101.47;;;14.74;56.58
58367;BME280;57745;42.524;12.052;2023-12-20T11:25:46;96092.28;;;14.54;57.28
58367;BME280;57745;42.524;12.052;2023-12-20T11:28:12;96088.47;;;14.69;56.62
58367;BME280;57745;42.524;12.052;2023-12-20T11:31:01;96083.66;;;14.55;57.19
58367;BME280;57745;42.524;12.052;2023-12-20T11:33:30;96076.09;;;14.50;57.32
58367;BME280;57745;42.524;12.052;2023-12-20T11:35:57;96077.09;;;14.62;56.49
58367;BME280;57745;42.524;12.052;2023-12-20T11:38:23;96077.91;;;14.53;57.40
58367;BME280;57745;42.524;12.052;2023-12-20T11:40:49;96076.09;;;14.50;57.13
58367;BME280;57745;42.524;12.052;2023-12-20T11:43:38;96080.28;;;14.60;56.46
58367;BME280;57745;42.524;12.052;2023-12-20T11:46:08;96077.28;;;14.58;56.52
58367;BME280;57745;42.524;12.052;2023-12-20T11:48:38;96068.75;;;14.65;56.07
58367;BME280;57745;42.524;12.052;2023-12-20T11:51:12;96061.38;;;14.57;56.12
58367;BME280;57745;42.524;12.052;2023-12-20T11:53:38;96067.59;;;14.39;57.10
58367;BME280;57745;42.524;12.052;2023-12-20T11:56:05;96063.16;;;14.60;56.32
58367;BME280;57745;42.524;12.052;2023-12-20T11:58:31;96057.63;;;14.45;56.28
58367;BME280;57745;42.524;12.052;2023-12-20T12:00:57;96062.59;;;14.56;55.87
58367;BME280;57745;42.524;12.052;2023-12-20T12:03:22;96062.13;;;14.48;56.06
58367;BME280;57745;42.524;12.052;2023-12-20T12:05:49;96054.56;;;14.52;55.87
58367;BME280;57745;42.524;12.052;2023-12-20T12:08:14;96052.88;;;14.55;55.62
58367;BME280;57745;42.524;12.052;2023-12-20T12:10:40;96049.72;;;14.47;55.82
58367;BME280;57745;42.524;12.052;2023-12-20T12:13:06;96041.50;;;14.56;55.41
58367;BME280;57745;42.524;12.052;2023-12-20T12:15:31;96039.81;;;14.59;55.30
58367;BME280;57745;42.524;12.052;2023-12-20T12:17:57;96044.31;;;14.71;54.79
58367;BME280;57745;42.524;12.052;2023-12-20T12:20:24;96034.34;;;14.59;54.92
58367;BME280;57745;42.524;12.052;2023-12-20T12:23:00;96038.44;;;14.63;54.86
58367;BME280;57745;42.524;12.052;2023-12-20T12:25:26;96033.41;;;14.71;54.34
58367;BME280;57745;42.524;12.052;2023-12-20T12:27:52;96017.91;;;14.44;55.40
58367;BME280;57745;42.524;12.052;2023-12-20T12:30:18;96020.88;;;14.55;54.85
58367;BME280;57745;42.524;12.052;2023-12-20T12:32:44;96016.38;;;14.76;54.10
58367;BME280;57745;42.524;12.052;2023-12-20T12:35:10;96008.78;;;14.47;54.81
58367;BME280;57745;42.524;12.052;2023-12-20T12:37:38;96008.03;;;14.47;54.67
58367;BME280;57745;42.524;12.052;2023-12-20T12:40:11;96008.56;;;14.60;54.80
58367;BME280;57745;42.524;12.052;2023-12-20T12:42:38;96003.75;;;14.55;54.69
58367;BME280;57745;42.524;12.052;2023-12-20T12:45:05;95995.22;;;14.62;53.92
58367;BME280;57745;42.524;12.052;2023-12-20T12:47:30;95991.16;;;14.57;54.14
58367;BME280;57745;42.524;12.052;2023-12-20T12:49:56;95977.34;;;14.61;53.92